Ouvidor, Brazil
Current Conditions -  °F | °C
As of 9:00 PM on Friday 28 Nov 2014 (Local Time) from SBUL Reporting Station
Light Rain Light Rain  
Wind Chill: 68°   Ceiling: Unl
Heat Index: 68°   Visibility: 6mi
Dew Point: 66°   Wind: 3mph
Humidity: 94%   Direction: 350°N
Pressure: 30.06"   Gusts: NA
Location:  18.23°S, 47.84°W
Report Text: SBUL 282300Z 35003KT 9999 -RA FEW006 SCT080 20/19 Q1018
Loading
Personal Weather Stations






























Interactive Weather Map New forecast layout! Learn more

10-Day Weather Forecast

Advertisements
Track Severe Weather on mobile